Time;durP1;ratioP1;P1;durP2;ratioP2;P2;SDS_P1;SDS_P2;PMS_P1;PMS_P2;Temp;Humidity;BMP_temperature;BMP_pressure;BME280_temperature;BME280_humidity;BME280_pressure;Samples;Min_cycle;Max_cycle;Signal;HPM_P1;HPM_P2
2024/01/01 00:00:36;;;;;;;8.38;5.75;;;4.30;99.90;;;;;;5019928;28;20021;-42
2024/01/01 00:03:02;;;;;;;6.18;4.35;;;4.20;99.90;;;;;;5017751;28;20419;-41
2024/01/01 00:05:27;;;;;;;7.25;4.80;;;4.30;99.90;;;;;;5022783;28;20372;-41
2024/01/01 00:07:53;;;;;;;5.97;3.78;;;4.20;99.90;;;;;;5014871;28;20031;-40
2024/01/01 00:10:19;;;;;;;7.07;4.35;;;4.20;99.90;;;;;;5022371;28;20034;-35
2024/01/01 00:12:45;;;;;;;4.43;4.03;;;4.20;99.90;;;;;;5019926;28;20021;-35
2024/01/01 00:15:11;;;;;;;7.97;4.88;;;4.20;99.90;;;;;;5018084;28;20021;-34
2024/01/01 00:17:37;;;;;;;5.93;4.60;;;4.20;99.90;;;;;;5018997;28;20025;-37
2024/01/01 00:20:04;;;;;;;6.05;3.83;;;4.20;99.90;;;;;;5014560;28;20021;-33
2024/01/01 00:22:29;;;;;;;7.28;4.72;;;4.20;99.90;;;;;;5018700;28;20057;-40
2024/01/01 00:24:55;;;;;;;3.42;3.00;;;4.20;99.90;;;;;;5015866;28;20415;-42
2024/01/01 00:27:20;;;;;;;8.55;5.05;;;4.20;99.90;;;;;;5018514;28;20033;-42
2024/01/01 00:29:46;;;;;;;10.90;6.13;;;4.20;99.90;;;;;;5015785;28;20034;-41
2024/01/01 00:32:12;;;;;;;6.40;3.58;;;4.20;99.90;;;;;;5019694;28;20064;-43
2024/01/01 00:34:37;;;;;;;19.10;8.65;;;4.20;99.90;;;;;;5010944;28;20029;-39
2024/01/01 00:37:03;;;;;;;16.60;8.80;;;4.20;99.90;;;;;;5017192;28;20063;-41
2024/01/01 00:39:29;;;;;;;18.05;8.63;;;4.10;99.90;;;;;;5014660;28;20509;-38
2024/01/01 00:41:54;;;;;;;11.80;6.30;;;4.10;99.90;;;;;;5012728;28;20036;-39
2024/01/01 00:44:20;;;;;;;61.42;23.88;;;4.10;99.90;;;;;;5013519;28;20044;-38
2024/01/01 00:46:46;;;;;;;28.42;12.57;;;4.10;99.90;;;;;;5012295;28;20597;-37
2024/01/01 00:49:11;;;;;;;10.20;5.85;;;4.10;99.90;;;;;;5018364;28;20037;-42
2024/01/01 00:51:37;;;;;;;12.73;6.25;;;4.10;99.90;;;;;;5019261;28;20076;-39
2024/01/01 00:54:02;;;;;;;5.15;3.50;;;4.10;99.90;;;;;;5017180;28;20033;-37
2024/01/01 00:56:28;;;;;;;23.73;11.85;;;4.10;99.90;;;;;;5013346;28;20545;-42
2024/01/01 00:58:54;;;;;;;19.58;9.43;;;4.10;99.90;;;;;;5018846;28;20029;-38
2024/01/01 01:01:19;;;;;;;10.73;4.72;;;4.20;99.90;;;;;;5016220;28;20718;-34
2024/01/01 01:03:45;;;;;;;10.70;4.93;;;4.10;99.90;;;;;;5017228;28;20049;-33
2024/01/01 01:06:10;;;;;;;7.68;4.03;;;4.10;99.90;;;;;;5015913;28;20033;-34
2024/01/01 01:08:36;;;;;;;16.17;6.80;;;4.10;99.90;;;;;;5017013;28;20037;-37
2024/01/01 01:11:02;;;;;;;25.23;11.18;;;4.10;99.90;;;;;;5015814;28;20507;-34
2024/01/01 01:13:27;;;;;;;58.53;24.92;;;4.00;99.90;;;;;;5018515;28;20033;-35
2024/01/01 01:15:53;;;;;;;26.55;11.70;;;3.90;99.90;;;;;;5019479;28;20116;-38
2024/01/01 01:18:18;;;;;;;33.95;13.95;;;3.90;99.90;;;;;;5014571;28;20030;-39
2024/01/01 01:20:44;;;;;;;29.85;12.57;;;3.90;99.90;;;;;;5019719;28;20041;-35
2024/01/01 01:23:10;;;;;;;40.45;15.93;;;3.90;99.90;;;;;;5016261;28;20509;-34
2024/01/01 01:25:36;;;;;;;19.17;8.52;;;3.90;99.90;;;;;;5021855;28;20042;-33
2024/01/01 01:28:03;;;;;;;32.72;13.32;;;3.90;99.90;;;;;;5020544;28;20034;-35
2024/01/01 01:30:29;;;;;;;13.65;5.53;;;3.90;99.90;;;;;;5019683;28;20022;-34
2024/01/01 01:32:54;;;;;;;63.80;24.42;;;3.80;99.90;;;;;;5021573;28;20046;-39
2024/01/01 01:35:20;;;;;;;35.88;15.02;;;3.80;99.90;;;;;;5025216;28;20116;-34
2024/01/01 01:37:45;;;;;;;39.00;16.20;;;3.80;99.90;;;;;;5018383;28;20033;-34
2024/01/01 01:40:11;;;;;;;90.93;37.35;;;3.70;99.90;;;;;;5019265;28;20030;-33
2024/01/01 01:42:37;;;;;;;46.25;17.92;;;3.70;99.90;;;;;;5023956;28;20049;-35
2024/01/01 01:45:03;;;;;;;26.25;11.60;;;3.70;99.90;;;;;;5018466;28;20105;-34
2024/01/01 01:47:29;;;;;;;17.92;7.93;;;3.70;99.90;;;;;;5022661;28;20034;-33
2024/01/01 01:49:55;;;;;;;15.32;7.88;;;3.70;99.90;;;;;;5022843;28;20030;-33
2024/01/01 01:52:21;;;;;;;14.63;7.90;;;3.70;99.90;;;;;;5013625;28;20025;-37
2024/01/01 01:54:51;;;;;;;6.25;3.80;;;3.60;99.90;;;;;;5022457;28;20042;-34
2024/01/01 01:57:17;;;;;;;6.88;3.92;;;3.60;99.90;;;;;;5016790;28;20029;-36
2024/01/01 01:59:43;;;;;;;11.10;5.57;;;3.60;99.90;;;;;;5019340;28;20068;-34
2024/01/01 02:02:12;;;;;;;6.43;5.28;;;3.60;99.90;;;;;;5023637;28;20076;-35
2024/01/01 02:04:38;;;;;;;7.47;4.45;;;3.60;99.90;;;;;;5020420;28;20029;-36
2024/01/01 02:07:04;;;;;;;7.55;4.18;;;3.60;99.90;;;;;;5021531;28;20030;-33
2024/01/01 02:09:31;;;;;;;5.72;4.03;;;3.50;99.90;;;;;;5021899;28;20447;-33
2024/01/01 02:11:56;;;;;;;7.55;4.57;;;3.60;99.90;;;;;;5027430;28;20052;-36
2024/01/01 02:14:23;;;;;;;10.10;4.53;;;3.50;99.90;;;;;;5020767;28;20068;-34
2024/01/01 02:16:50;;;;;;;8.23;4.38;;;3.60;99.90;;;;;;5017414;28;20014;-34
2024/01/01 02:19:22;;;;;;;6.90;4.32;;;3.60;99.90;;;;;;5022077;28;20029;-34
2024/01/01 02:21:50;;;;;;;8.60;5.95;;;3.60;99.90;;;;;;5024182;28;20097;-33
2024/01/01 02:24:16;;;;;;;8.63;4.70;;;3.50;99.90;;;;;;5019203;28;20037;-33
2024/01/01 02:26:45;;;;;;;5.85;4.78;;;3.50;99.90;;;;;;5023833;28;20078;-37
2024/01/01 02:29:12;;;;;;;8.02;5.22;;;3.50;99.90;;;;;;5020000;28;20034;-33
2024/01/01 02:31:37;;;;;;;6.03;4.30;;;3.40;99.90;;;;;;5019657;28;20552;-33
2024/01/01 02:34:03;;;;;;;6.07;4.07;;;3.50;99.90;;;;;;5024659;28;20037;-33
2024/01/01 02:36:34;;;;;;;8.50;5.57;;;3.50;99.90;;;;;;5022249;28;20640;-36
2024/01/01 02:38:59;;;;;;;6.57;4.50;;;3.50;99.90;;;;;;5016288;28;20129;-33
2024/01/01 02:41:25;;;;;;;3.33;2.80;;;3.40;99.90;;;;;;5021052;28;20443;-33
2024/01/01 02:43:51;;;;;;;10.68;3.65;;;3.40;99.90;;;;;;5019234;28;20029;-33
2024/01/01 02:46:16;;;;;;;5.65;4.13;;;3.40;99.90;;;;;;5019303;28;20530;-33
2024/01/01 02:48:42;;;;;;;7.13;3.70;;;3.40;99.90;;;;;;5023681;28;20029;-34
2024/01/01 02:51:08;;;;;;;5.40;3.65;;;3.40;99.90;;;;;;5022122;28;20053;-34
2024/01/01 02:53:34;;;;;;;7.57;4.20;;;3.40;99.90;;;;;;5017992;28;20037;-35
2024/01/01 02:56:00;;;;;;;7.68;4.28;;;3.30;99.90;;;;;;5013480;28;20518;-33
2024/01/01 02:58:26;;;;;;;6.43;3.78;;;3.30;99.90;;;;;;5024462;28;20025;-35
2024/01/01 03:00:51;;;;;;;12.70;6.38;;;3.30;99.90;;;;;;5018286;28;20029;-33
2024/01/01 03:03:18;;;;;;;7.25;3.47;;;3.30;99.90;;;;;;5013830;28;20394;-34
2024/01/01 03:05:43;;;;;;;4.32;3.10;;;3.20;99.90;;;;;;5016667;28;20105;-34
2024/01/01 03:08:10;;;;;;;3.65;2.38;;;3.20;99.90;;;;;;5017060;28;20025;-33
2024/01/01 03:10:36;;;;;;;8.82;5.28;;;3.30;99.90;;;;;;5019090;28;20387;-33
2024/01/01 03:13:02;;;;;;;9.00;5.50;;;3.30;99.90;;;;;;5021285;28;20033;-34
2024/01/01 03:15:27;;;;;;;8.48;4.50;;;3.20;99.90;;;;;;5025104;28;20120;-36
2024/01/01 03:17:54;;;;;;;5.97;3.55;;;3.20;99.90;;;;;;5019338;28;20124;-38
2024/01/01 03:20:19;;;;;;;3.83;3.35;;;3.20;99.90;;;;;;5019576;28;20385;-34
2024/01/01 03:22:45;;;;;;;6.30;4.28;;;3.20;99.90;;;;;;5020140;28;20033;-38
2024/01/01 03:25:11;;;;;;;6.35;3.80;;;3.20;99.90;;;;;;5020295;28;20042;-36
2024/01/01 03:27:37;;;;;;;4.85;2.85;;;3.20;99.90;;;;;;5021858;28;20364;-38
2024/01/01 03:30:08;;;;;;;5.63;3.35;;;3.30;99.90;;;;;;5017116;28;20168;-35
2024/01/01 03:32:35;;;;;;;6.25;3.60;;;3.30;99.90;;;;;;5017515;28;20041;-35
2024/01/01 03:35:01;;;;;;;4.28;1.92;;;3.40;99.90;;;;;;5016720;28;20125;-34
2024/01/01 03:37:27;;;;;;;4.95;2.88;;;3.50;99.90;;;;;;5016682;28;20422;-34
2024/01/01 03:39:52;;;;;;;4.65;2.97;;;3.50;99.90;;;;;;5019663;28;20017;-40
2024/01/01 03:42:18;;;;;;;4.05;2.92;;;3.50;99.90;;;;;;5023186;28;20134;-35
2024/01/01 03:44:43;;;;;;;6.60;3.35;;;3.60;99.90;;;;;;5019039;28;20665;-34
2024/01/01 03:47:09;;;;;;;5.13;2.95;;;3.60;99.90;;;;;;5015322;28;20427;-34
2024/01/01 03:49:35;;;;;;;5.55;3.28;;;3.70;99.90;;;;;;5016819;28;20033;-34
2024/01/01 03:52:00;;;;;;;9.80;5.03;;;3.70;99.90;;;;;;5019526;28;20092;-34
2024/01/01 03:54:26;;;;;;;4.32;3.33;;;3.70;99.90;;;;;;5018504;28;20527;-34
2024/01/01 03:56:52;;;;;;;6.68;3.67;;;3.80;99.90;;;;;;5014756;28;20093;-36
2024/01/01 03:59:17;;;;;;;4.57;3.20;;;3.90;99.90;;;;;;5015510;28;20747;-35
2024/01/01 04:01:43;;;;;;;4.28;3.20;;;3.90;99.90;;;;;;5018016;28;20411;-35
2024/01/01 04:04:09;;;;;;;5.88;3.45;;;3.90;99.90;;;;;;5019498;28;20044;-35
2024/01/01 04:06:35;;;;;;;4.32;2.95;;;3.90;99.90;;;;;;5017540;28;20022;-34
2024/01/01 04:09:02;;;;;;;8.95;3.83;;;3.90;99.90;;;;;;5012531;28;20035;-34
2024/01/01 04:11:28;;;;;;;4.90;3.42;;;3.90;99.90;;;;;;5016122;28;20061;-35
2024/01/01 04:13:53;;;;;;;5.07;3.05;;;4.00;99.90;;;;;;5015466;28;20475;-38
2024/01/01 04:16:19;;;;;;;5.15;3.22;;;3.90;99.90;;;;;;5018249;28;20026;-37
2024/01/01 04:18:45;;;;;;;6.65;4.13;;;3.90;99.90;;;;;;5017804;28;20117;-34
2024/01/01 04:21:11;;;;;;;3.80;3.17;;;3.90;99.90;;;;;;5031589;28;20026;-36
2024/01/01 04:23:37;;;;;;;3.33;2.65;;;3.80;99.90;;;;;;5014712;28;20041;-34
2024/01/01 04:26:03;;;;;;;7.50;3.40;;;3.80;99.90;;;;;;5018356;28;20559;-33
2024/01/01 04:28:28;;;;;;;5.30;3.63;;;3.80;99.90;;;;;;5031003;28;20029;-36
2024/01/01 04:30:54;;;;;;;6.78;3.10;;;3.80;99.90;;;;;;5014581;28;20558;-42
2024/01/01 04:33:20;;;;;;;3.67;2.20;;;3.70;99.90;;;;;;5030168;28;20053;-40
2024/01/01 04:35:46;;;;;;;4.00;3.17;;;3.70;99.90;;;;;;5018502;28;20033;-41
2024/01/01 04:38:12;;;;;;;4.30;2.92;;;3.70;99.90;;;;;;5015701;28;20029;-41
2024/01/01 04:40:37;;;;;;;5.63;2.92;;;3.70;99.90;;;;;;5019509;28;20017;-41
2024/01/01 04:43:04;;;;;;;4.22;2.67;;;3.70;99.90;;;;;;5017217;28;20025;-40
2024/01/01 04:45:31;;;;;;;3.85;2.53;;;3.70;99.90;;;;;;5019940;28;20026;-41
2024/01/01 04:47:57;;;;;;;6.05;3.03;;;3.70;99.90;;;;;;5014002;28;20037;-38
2024/01/01 04:50:22;;;;;;;4.10;2.60;;;3.60;99.90;;;;;;5017312;28;20087;-41
2024/01/01 04:52:48;;;;;;;3.53;2.72;;;3.60;99.90;;;;;;5020152;28;20030;-40
2024/01/01 04:55:13;;;;;;;4.38;2.60;;;3.60;99.90;;;;;;5016796;28;20089;-41
2024/01/01 04:57:39;;;;;;;5.00;2.72;;;3.60;99.90;;;;;;5019022;28;20064;-39
2024/01/01 05:00:06;;;;;;;3.08;2.40;;;3.70;99.90;;;;;;5015823;28;20041;-42
2024/01/01 05:02:31;;;;;;;3.42;2.55;;;3.70;99.90;;;;;;5021303;28;20026;-37
2024/01/01 05:04:57;;;;;;;4.50;2.67;;;3.70;99.90;;;;;;5020542;28;20368;-39
2024/01/01 05:07:23;;;;;;;4.13;2.80;;;3.70;99.90;;;;;;5015753;28;20582;-42
2024/01/01 05:09:48;;;;;;;2.95;2.40;;;3.70;99.90;;;;;;5014947;28;20061;-41
2024/01/01 05:12:14;;;;;;;4.07;3.20;;;3.70;99.90;;;;;;5020788;28;20094;-40
2024/01/01 05:14:40;;;;;;;2.53;1.67;;;3.70;99.90;;;;;;5016334;28;20036;-39
2024/01/01 05:17:06;;;;;;;5.15;2.80;;;3.80;99.90;;;;;;5014909;28;20033;-42
2024/01/01 05:19:31;;;;;;;4.57;2.78;;;3.80;99.90;;;;;;5012513;28;20041;-39
2024/01/01 05:21:58;;;;;;;3.78;2.60;;;3.80;99.90;;;;;;5017252;28;20383;-41
2024/01/01 05:24:23;;;;;;;2.85;1.77;;;3.80;99.90;;;;;;5019678;28;20025;-41
2024/01/01 05:26:49;;;;;;;2.40;2.13;;;3.80;99.90;;;;;;5018388;28;20603;-42
2024/01/01 05:29:14;;;;;;;3.08;2.53;;;3.70;99.90;;;;;;5016158;28;20037;-40
2024/01/01 05:31:40;;;;;;;3.33;2.28;;;3.70;99.90;;;;;;5017817;28;20408;-42
2024/01/01 05:34:06;;;;;;;4.00;2.60;;;3.70;99.90;;;;;;5020720;28;20060;-41
2024/01/01 05:36:31;;;;;;;3.22;2.33;;;3.70;99.90;;;;;;5020617;28;20033;-37
2024/01/01 05:38:57;;;;;;;2.90;2.22;;;3.70;99.90;;;;;;5019183;28;20120;-42
2024/01/01 05:41:22;;;;;;;3.30;2.47;;;3.70;99.90;;;;;;5022500;28;20446;-42
2024/01/01 05:43:50;;;;;;;2.35;1.92;;;3.60;99.90;;;;;;5021975;28;20033;-41
2024/01/01 05:46:15;;;;;;;2.47;2.00;;;3.60;99.90;;;;;;5018847;28;20564;-42
2024/01/01 05:48:42;;;;;;;1.83;1.60;;;3.60;99.90;;;;;;5018842;28;20026;-41
2024/01/01 05:51:09;;;;;;;2.38;2.13;;;3.60;99.90;;;;;;5018649;28;20128;-40
2024/01/01 05:53:35;;;;;;;1.98;1.75;;;3.60;99.90;;;;;;5017030;28;20115;-41
2024/01/01 05:56:03;;;;;;;2.35;2.10;;;3.60;99.90;;;;;;5016646;28;20034;-41
2024/01/01 05:58:30;;;;;;;2.13;1.88;;;3.50;99.90;;;;;;5019215;28;20495;-40
2024/01/01 06:00:56;;;;;;;2.20;1.52;;;3.50;99.90;;;;;;5021192;28;20033;-41
2024/01/01 06:03:23;;;;;;;1.85;1.67;;;3.50;99.90;;;;;;5020634;28;20033;-41
2024/01/01 06:05:49;;;;;;;3.50;1.63;;;3.50;99.90;;;;;;5022735;28;20024;-36
2024/01/01 06:08:16;;;;;;;2.38;1.88;;;3.50;99.90;;;;;;5032742;28;20026;-41
2024/01/01 06:10:41;;;;;;;1.92;1.55;;;3.50;99.90;;;;;;5019909;28;20140;-42
2024/01/01 06:13:07;;;;;;;1.85;1.58;;;3.50;99.90;;;;;;5019289;28;20137;-43
2024/01/01 06:15:33;;;;;;;1.83;1.45;;;3.50;99.90;;;;;;5020276;28;20458;-40
2024/01/01 06:17:59;;;;;;;2.63;1.50;;;3.50;99.90;;;;;;5017294;28;20028;-41
2024/01/01 06:20:25;;;;;;;2.28;2.03;;;3.60;99.90;;;;;;5020116;28;20037;-41
2024/01/01 06:22:51;;;;;;;2.38;1.30;;;3.60;99.90;;;;;;5020991;28;20059;-43
2024/01/01 06:25:18;;;;;;;1.27;1.17;;;3.70;99.90;;;;;;5023674;28;20072;-42
2024/01/01 06:27:44;;;;;;;4.30;1.35;;;3.70;99.90;;;;;;5019331;28;20030;-39
2024/01/01 06:30:11;;;;;;;2.40;1.60;;;3.70;99.90;;;;;;5018944;28;20091;-36
2024/01/01 06:32:38;;;;;;;2.47;2.05;;;3.70;99.90;;;;;;5015365;28;20096;-42
2024/01/01 06:35:04;;;;;;;2.33;1.55;;;3.70;99.90;;;;;;5024329;28;20103;-40
2024/01/01 06:37:31;;;;;;;2.17;1.52;;;3.70;99.90;;;;;;5037704;28;20056;-39
2024/01/01 06:39:57;;;;;;;2.58;1.60;;;3.70;99.90;;;;;;5025723;28;20021;-42
2024/01/01 06:42:23;;;;;;;2.53;2.33;;;3.70;99.90;;;;;;5018904;28;20018;-41
2024/01/01 06:44:50;;;;;;;2.22;1.63;;;3.70;99.90;;;;;;5015092;28;20402;-41
2024/01/01 06:47:16;;;;;;;1.65;1.35;;;3.70;99.90;;;;;;5026193;28;20053;-40
2024/01/01 06:49:42;;;;;;;2.33;1.50;;;3.70;99.90;;;;;;5020272;28;20116;-42
2024/01/01 06:52:09;;;;;;;3.42;1.70;;;3.70;99.90;;;;;;5022115;28;20463;-41
2024/01/01 06:54:39;;;;;;;1.85;1.50;;;3.80;99.90;;;;;;5023411;28;20030;-37
2024/01/01 06:57:06;;;;;;;1.63;1.27;;;3.80;99.90;;;;;;5023442;28;20714;-41
2024/01/01 06:59:32;;;;;;;0.90;0.90;;;3.70;99.90;;;;;;5024885;28;20072;-36
2024/01/01 07:01:59;;;;;;;2.40;1.35;;;3.70;99.90;;;;;;5018383;28;20029;-39
2024/01/01 07:04:26;;;;;;;1.50;1.40;;;3.70;99.90;;;;;;5019341;28;20112;-40
2024/01/01 07:06:52;;;;;;;1.13;1.02;;;3.80;99.90;;;;;;5021257;28;20033;-41
2024/01/01 07:09:18;;;;;;;2.20;1.15;;;3.80;99.90;;;;;;5020978;28;20546;-40
2024/01/01 07:11:45;;;;;;;1.77;1.30;;;3.80;99.90;;;;;;5021493;28;20029;-41
2024/01/01 07:14:11;;;;;;;2.40;1.55;;;3.80;99.90;;;;;;5021153;28;20025;-41
2024/01/01 07:16:37;;;;;;;1.35;1.25;;;3.80;99.90;;;;;;5025053;28;20459;-42
2024/01/01 07:19:07;;;;;;;4.53;1.67;;;3.80;99.90;;;;;;5018322;28;20057;-40
2024/01/01 07:21:32;;;;;;;2.55;1.30;;;3.80;99.90;;;;;;5024757;28;20678;-38
2024/01/01 07:23:59;;;;;;;1.55;1.30;;;3.80;99.90;;;;;;5022045;28;20025;-38
2024/01/01 07:26:24;;;;;;;1.55;1.30;;;3.80;99.90;;;;;;5011992;28;20426;-39
2024/01/01 07:28:50;;;;;;;1.75;1.42;;;3.80;99.90;;;;;;5023744;28;20029;-38
2024/01/01 07:31:16;;;;;;;2.92;1.10;;;3.70;99.90;;;;;;5014936;28;20701;-40
2024/01/01 07:33:42;;;;;;;1.38;1.27;;;3.70;99.90;;;;;;5019770;28;20038;-41
2024/01/01 07:36:11;;;;;;;3.30;1.75;;;3.70;99.90;;;;;;5021493;28;20329;-42
2024/01/01 07:38:38;;;;;;;3.00;1.40;;;3.70;99.90;;;;;;5013929;28;20014;-39
2024/01/01 07:41:05;;;;;;;1.77;1.67;;;3.70;99.90;;;;;;5024940;28;20030;-39
2024/01/01 07:43:32;;;;;;;1.55;1.45;;;3.70;99.90;;;;;;5021908;28;20467;-34
2024/01/01 07:45:58;;;;;;;1.52;0.98;;;3.70;99.90;;;;;;5021722;28;20053;-42
2024/01/01 07:48:24;;;;;;;3.05;1.58;;;3.70;99.90;;;;;;5020503;28;20183;-43
2024/01/01 07:50:50;;;;;;;1.98;1.33;;;3.70;99.90;;;;;;5023465;28;20085;-38
2024/01/01 07:53:17;;;;;;;0.98;0.93;;;3.70;99.90;;;;;;5014013;28;20257;-40
2024/01/01 07:55:43;;;;;;;1.10;1.10;;;3.70;99.90;;;;;;5020543;28;20534;-43
2024/01/01 07:58:08;;;;;;;4.03;0.90;;;3.70;99.90;;;;;;5019404;28;20033;-42
2024/01/01 08:00:34;;;;;;;1.98;1.10;;;3.80;99.90;;;;;;5023933;28;20070;-35
2024/01/01 08:02:59;;;;;;;1.25;1.15;;;3.80;99.90;;;;;;5022582;28;22323;-35
2024/01/01 08:05:25;;;;;;;2.53;1.40;;;3.80;99.90;;;;;;5020134;28;20038;-33
2024/01/01 08:07:51;;;;;;;1.08;1.02;;;3.80;99.90;;;;;;5017170;28;20261;-34
2024/01/01 08:10:17;;;;;;;0.90;0.88;;;3.80;99.90;;;;;;5035043;28;20472;-34
2024/01/01 08:12:43;;;;;;;1.65;1.35;;;3.90;99.90;;;;;;5014755;28;20391;-35
2024/01/01 08:15:09;;;;;;;1.50;1.40;;;3.90;99.90;;;;;;5018438;28;20022;-33
2024/01/01 08:17:34;;;;;;;3.50;1.42;;;3.90;99.90;;;;;;5016844;28;20112;-36
2024/01/01 08:20:00;;;;;;;1.98;1.48;;;3.90;99.90;;;;;;5022922;28;20030;-33
2024/01/01 08:22:26;;;;;;;3.10;1.75;;;4.00;99.90;;;;;;5021865;28;20235;-32
2024/01/01 08:24:52;;;;;;;3.67;1.80;;;4.00;99.90;;;;;;5019881;28;20033;-34
2024/01/01 08:27:18;;;;;;;1.55;1.20;;;4.10;99.90;;;;;;5017553;28;20025;-37
2024/01/01 08:29:43;;;;;;;2.35;1.70;;;4.10;99.90;;;;;;5017010;28;20074;-33
2024/01/01 08:32:09;;;;;;;1.60;1.50;;;4.10;99.90;;;;;;5013438;28;20104;-33
2024/01/01 08:34:35;;;;;;;1.95;1.67;;;4.10;99.90;;;;;;5020572;28;20044;-34
2024/01/01 08:37:04;;;;;;;1.30;1.05;;;4.20;99.90;;;;;;5015192;28;20083;-35
2024/01/01 08:39:29;;;;;;;1.85;1.35;;;4.30;99.90;;;;;;5012749;28;20014;-33
2024/01/01 08:41:55;;;;;;;2.33;1.55;;;4.30;99.90;;;;;;5016396;28;20029;-34
2024/01/01 08:44:21;;;;;;;1.98;1.25;;;4.30;99.90;;;;;;5020490;28;20032;-35
2024/01/01 08:46:47;;;;;;;2.25;1.50;;;4.30;99.90;;;;;;5016319;28;20041;-32
2024/01/01 08:49:12;;;;;;;3.38;1.92;;;4.40;99.90;;;;;;5010657;28;20025;-35
2024/01/01 08:51:38;;;;;;;5.07;1.88;;;4.50;99.90;;;;;;5020882;28;20506;-32
2024/01/01 08:54:07;;;;;;;2.15;1.45;;;4.40;99.90;;;;;;5012062;28;20112;-33
2024/01/01 08:56:33;;;;;;;2.22;1.08;;;4.50;99.90;;;;;;5020014;28;20029;-36
2024/01/01 08:58:59;;;;;;;5.00;1.60;;;4.60;99.90;;;;;;5017671;28;20096;-34
2024/01/01 09:01:25;;;;;;;3.22;1.67;;;4.60;99.90;;;;;;5018438;28;20606;-32
2024/01/01 09:03:50;;;;;;;1.60;1.13;;;4.70;99.90;;;;;;5014373;28;20448;-34
2024/01/01 09:06:17;;;;;;;2.20;1.08;;;4.70;99.90;;;;;;5020615;28;20022;-33
2024/01/01 09:08:43;;;;;;;3.72;1.13;;;4.80;99.90;;;;;;5027611;28;20033;-33
2024/01/01 09:11:09;;;;;;;2.53;1.13;;;4.90;99.90;;;;;;5027162;28;20032;-39
2024/01/01 09:13:36;;;;;;;2.88;1.58;;;4.90;99.90;;;;;;5026317;28;20406;-39
2024/01/01 09:16:02;;;;;;;1.20;1.10;;;5.00;99.90;;;;;;5024473;28;20094;-41
2024/01/01 09:18:29;;;;;;;1.23;1.00;;;5.00;99.90;;;;;;5027059;28;20655;-41
2024/01/01 09:20:55;;;;;;;1.52;1.05;;;5.10;99.90;;;;;;5024687;28;20022;-40
2024/01/01 09:23:21;;;;;;;2.10;1.25;;;5.10;99.90;;;;;;5027903;28;20875;-41
2024/01/01 09:25:48;;;;;;;2.60;1.15;;;5.20;99.90;;;;;;5018756;28;20025;-41
2024/01/01 09:28:14;;;;;;;2.22;1.17;;;5.20;99.90;;;;;;5014951;28;20034;-42
2024/01/01 09:30:41;;;;;;;0.80;0.80;;;5.20;99.90;;;;;;5023765;28;20063;-41
2024/01/01 09:33:06;;;;;;;1.88;1.33;;;5.30;99.90;;;;;;5026940;28;20061;-41
2024/01/01 09:35:34;;;;;;;1.20;1.10;;;5.40;99.90;;;;;;5022516;28;20428;-39
2024/01/01 09:38:03;;;;;;;4.38;1.25;;;5.50;99.90;;;;;;5014308;28;20054;-40
2024/01/01 09:40:28;;;;;;;1.00;1.00;;;5.50;99.90;;;;;;5023322;28;20030;-41
2024/01/01 09:42:55;;;;;;;3.80;1.20;;;5.50;99.90;;;;;;5017057;28;20018;-37
2024/01/01 09:45:21;;;;;;;2.40;1.50;;;5.50;99.90;;;;;;5021348;28;20565;-41
2024/01/01 09:47:46;;;;;;;1.75;1.40;;;5.60;99.90;;;;;;5023799;28;20105;-40
2024/01/01 09:50:12;;;;;;;0.70;0.70;;;5.70;99.90;;;;;;5017594;28;20029;-41
2024/01/01 09:52:38;;;;;;;2.47;1.23;;;5.70;99.90;;;;;;5025688;28;20125;-41
2024/01/01 09:55:04;;;;;;;3.20;1.02;;;5.80;99.90;;;;;;5020233;28;20132;-41
2024/01/01 09:57:30;;;;;;;1.75;0.80;;;5.90;99.90;;;;;;5018584;28;20310;-38
2024/01/01 09:59:59;;;;;;;2.90;1.20;;;5.90;99.90;;;;;;5014722;28;20032;-41
2024/01/01 10:02:24;;;;;;;1.27;1.20;;;5.90;99.90;;;;;;5025002;28;20038;-40
2024/01/01 10:04:50;;;;;;;1.30;1.10;;;6.00;99.90;;;;;;5023935;28;20032;-39
2024/01/01 10:07:26;;;;;;;1.20;1.02;;;6.00;99.90;;;;;;5018552;28;20041;-39
2024/01/01 10:09:52;;;;;;;3.03;1.20;;;6.10;99.90;;;;;;5022260;28;20040;-41
2024/01/01 10:12:22;;;;;;;2.28;1.38;;;6.10;99.90;;;;;;5021553;28;20030;-39
2024/01/01 10:14:50;;;;;;;2.28;1.13;;;6.20;99.90;;;;;;5021930;28;20025;-39
2024/01/01 10:17:17;;;;;;;1.13;0.95;;;6.30;99.90;;;;;;5017637;28;20036;-41
2024/01/01 10:19:56;;;;;;;1.48;1.10;;;6.20;99.90;;;;;;5012696;28;20108;-42
2024/01/01 10:22:23;;;;;;;1.55;1.42;;;6.10;99.90;;;;;;5018793;28;20029;-33
2024/01/01 10:24:55;;;;;;;1.60;1.00;;;6.10;99.90;;;;;;5025017;28;20026;-34
2024/01/01 10:27:22;;;;;;;0.88;0.85;;;6.10;99.90;;;;;;5022208;28;20040;-38
2024/01/01 10:29:48;;;;;;;1.08;1.00;;;6.10;99.90;;;;;;5019225;28;20044;-32
2024/01/01 10:32:18;;;;;;;0.98;0.90;;;6.10;99.90;;;;;;5020004;28;20034;-35
2024/01/01 10:34:45;;;;;;;5.97;1.13;;;6.10;99.90;;;;;;5017025;28;20106;-33
2024/01/01 10:37:18;;;;;;;1.63;1.50;;;6.10;99.90;;;;;;5018351;28;20164;-33
2024/01/01 10:39:45;;;;;;;1.70;1.00;;;6.20;99.90;;;;;;5016402;28;20633;-35
2024/01/01 10:42:11;;;;;;;3.63;1.40;;;6.40;99.90;;;;;;5020849;28;20021;-34
2024/01/01 10:44:38;;;;;;;0.82;0.75;;;6.50;99.90;;;;;;5016164;28;20030;-34
2024/01/01 10:47:11;;;;;;;1.15;0.98;;;6.50;99.90;;;;;;5019779;28;20109;-33
2024/01/01 10:49:46;;;;;;;2.20;0.93;;;6.50;99.90;;;;;;5014330;28;20038;-34
2024/01/01 10:52:30;;;;;;;1.55;0.90;;;6.50;99.90;;;;;;5018265;28;20048;-33
2024/01/01 10:55:33;;;;;;;2.85;1.15;;;6.50;99.90;;;;;;5017286;28;20041;-34
2024/01/01 10:58:08;;;;;;;1.35;0.70;;;6.50;99.90;;;;;;5017726;28;20030;-35
2024/01/01 11:00:33;;;;;;;1.20;0.93;;;6.60;99.90;;;;;;5014122;28;20147;-33
2024/01/01 11:03:01;;;;;;;1.13;0.85;;;6.60;99.90;;;;;;5017666;28;20124;-37
2024/01/01 11:05:34;;;;;;;1.75;1.05;;;6.50;99.90;;;;;;5016691;28;20062;-35
2024/01/01 11:08:02;;;;;;;1.15;0.80;;;6.60;99.90;;;;;;5018355;28;20049;-33
2024/01/01 11:10:44;;;;;;;3.67;1.10;;;6.50;99.90;;;;;;5014228;28;20160;-36
2024/01/01 11:13:33;;;;;;;0.70;0.70;;;6.50;99.90;;;;;;5014150;28;20333;-37
2024/01/01 11:16:06;;;;;;;1.50;0.88;;;6.60;99.90;;;;;;5019016;28;20361;-34
2024/01/01 11:18:40;;;;;;;1.20;1.20;;;6.50;99.90;;;;;;5019762;28;20125;-37
2024/01/01 11:21:07;;;;;;;1.30;0.65;;;6.50;99.90;;;;;;5014536;28;20605;-35
2024/01/01 11:23:46;;;;;;;0.60;0.60;;;6.50;99.90;;;;;;5018709;28;20049;-33
2024/01/01 11:26:23;;;;;;;0.70;0.70;;;6.60;99.90;;;;;;5022657;28;20120;-35
2024/01/01 11:28:49;;;;;;;0.75;0.75;;;6.60;99.90;;;;;;5017516;28;20060;-35
2024/01/01 11:31:15;;;;;;;0.80;0.80;;;6.50;99.90;;;;;;5018708;28;20057;-32
2024/01/01 11:33:41;;;;;;;2.58;0.90;;;6.50;99.90;;;;;;5015665;28;20073;-31
2024/01/01 11:36:10;;;;;;;0.60;0.60;;;6.50;99.90;;;;;;5018769;28;20033;-34
2024/01/01 11:38:37;;;;;;;0.70;0.70;;;6.60;99.90;;;;;;5019126;28;20030;-32
2024/01/01 11:41:02;;;;;;;1.48;0.90;;;6.50;99.90;;;;;;5019480;28;20108;-32
2024/01/01 11:43:28;;;;;;;0.82;0.65;;;6.50;99.90;;;;;;5016455;28;20542;-31
2024/01/01 11:45:57;;;;;;;1.25;0.65;;;6.60;99.90;;;;;;5018971;28;20029;-33
2024/01/01 11:48:24;;;;;;;3.05;1.00;;;6.70;99.90;;;;;;5015593;28;20513;-35
2024/01/01 11:50:50;;;;;;;1.13;1.02;;;6.70;99.90;;;;;;5015993;28;20029;-33
2024/01/01 11:53:16;;;;;;;0.65;0.65;;;6.70;99.90;;;;;;5016178;28;20780;-34
2024/01/01 11:55:42;;;;;;;0.90;0.65;;;6.80;99.90;;;;;;5016780;28;20030;-32
2024/01/01 11:58:08;;;;;;;2.65;0.82;;;6.80;99.90;;;;;;5018902;28;20041;-32
2024/01/01 12:00:35;;;;;;;1.85;1.02;;;6.90;99.90;;;;;;5017119;28;20059;-37
2024/01/01 12:03:03;;;;;;;2.60;1.20;;;6.90;99.90;;;;;;5017957;28;20573;-33
2024/01/01 12:05:29;;;;;;;0.73;0.70;;;7.00;99.90;;;;;;5018919;28;20072;-35
2024/01/01 12:07:54;;;;;;;4.20;0.90;;;7.00;99.90;;;;;;5017945;28;20034;-34
2024/01/01 12:10:20;;;;;;;2.35;1.00;;;7.00;99.90;;;;;;5017016;28;20021;-33
2024/01/01 12:12:47;;;;;;;1.83;1.10;;;7.00;99.90;;;;;;5017033;28;20048;-35
2024/01/01 12:15:17;;;;;;;3.22;0.90;;;7.00;99.90;;;;;;5021043;28;20699;-36
2024/01/01 12:17:50;;;;;;;2.58;1.08;;;7.10;99.90;;;;;;5020403;28;20013;-33
2024/01/01 12:20:22;;;;;;;2.65;1.05;;;7.10;99.90;;;;;;5017316;28;20033;-32
2024/01/01 12:22:48;;;;;;;5.30;1.20;;;7.00;99.90;;;;;;5030860;28;20030;-32
2024/01/01 12:25:22;;;;;;;1.10;0.70;;;7.10;99.90;;;;;;5014760;28;20076;-34
2024/01/01 12:28:08;;;;;;;1.63;0.80;;;7.20;99.90;;;;;;5016428;28;20033;-33
2024/01/01 12:30:35;;;;;;;1.08;1.00;;;7.30;99.90;;;;;;5016241;28;20033;-35
2024/01/01 12:33:01;;;;;;;1.27;0.80;;;7.30;99.90;;;;;;5016553;28;20700;-33
2024/01/01 12:35:27;;;;;;;4.85;1.15;;;7.40;99.90;;;;;;5013618;28;20041;-32
2024/01/01 12:37:53;;;;;;;4.25;1.75;;;7.30;99.90;;;;;;5017196;28;20037;-39
2024/01/01 12:40:19;;;;;;;2.72;0.93;;;7.40;99.90;;;;;;5016356;28;20530;-34
2024/01/01 12:42:45;;;;;;;0.75;0.75;;;7.40;99.90;;;;;;5016273;28;20160;-36
2024/01/01 12:45:12;;;;;;;2.75;1.00;;;7.50;99.90;;;;;;5014930;28;20037;-37
2024/01/01 12:47:39;;;;;;;3.50;1.08;;;7.50;99.90;;;;;;5019372;28;20044;-34
2024/01/01 12:50:06;;;;;;;0.50;0.50;;;7.50;99.90;;;;;;5021189;28;20021;-36
2024/01/01 12:52:31;;;;;;;2.10;0.77;;;7.50;99.90;;;;;;5019729;28;20037;-37